sensor_id;sensor_type;location;lat;lon;timestamp;P1;durP1;ratioP1;P2;durP2;ratioP2
58208;SDS011;44006;52.028;4.696;2023-08-07T00:01:19;15.23;;;2.55;;
58208;SDS011;44006;52.028;4.696;2023-08-07T00:03:44;13.50;;;2.73;;
58208;SDS011;44006;52.028;4.696;2023-08-07T00:06:09;10.90;;;2.40;;
58208;SDS011;44006;52.028;4.696;2023-08-07T00:08:34;12.57;;;2.40;;
58208;SDS011;44006;52.028;4.696;2023-08-07T00:11:08;14.93;;;2.72;;
58208;SDS011;44006;52.028;4.696;2023-08-07T00:13:33;12.25;;;2.65;;
58208;SDS011;44006;52.028;4.696;2023-08-07T00:15:59;13.73;;;2.72;;
58208;SDS011;44006;52.028;4.696;2023-08-07T00:18:24;16.50;;;3.10;;
58208;SDS011;44006;52.028;4.696;2023-08-07T00:20:49;9.87;;;2.60;;
58208;SDS011;44006;52.028;4.696;2023-08-07T00:23:14;12.70;;;2.77;;
58208;SDS011;44006;52.028;4.696;2023-08-07T00:25:39;10.63;;;2.80;;
58208;SDS011;44006;52.028;4.696;2023-08-07T00:28:05;19.37;;;3.47;;
58208;SDS011;44006;52.028;4.696;2023-08-07T00:30:30;9.40;;;2.53;;
58208;SDS011;44006;52.028;4.696;2023-08-07T00:32:56;10.87;;;3.13;;
58208;SDS011;44006;52.028;4.696;2023-08-07T00:35:21;11.80;;;2.83;;
58208;SDS011;44006;52.028;4.696;2023-08-07T00:37:46;11.40;;;2.60;;
58208;SDS011;44006;52.028;4.696;2023-08-07T00:40:11;14.00;;;3.30;;
58208;SDS011;44006;52.028;4.696;2023-08-07T00:42:36;10.13;;;2.93;;
58208;SDS011;44006;52.028;4.696;2023-08-07T00:45:02;14.33;;;2.93;;
58208;SDS011;44006;52.028;4.696;2023-08-07T00:47:27;17.40;;;3.33;;
58208;SDS011;44006;52.028;4.696;2023-08-07T00:49:52;12.52;;;2.78;;
58208;SDS011;44006;52.028;4.696;2023-08-07T00:52:18;13.77;;;2.40;;
58208;SDS011;44006;52.028;4.696;2023-08-07T00:54:43;10.43;;;2.78;;
58208;SDS011;44006;52.028;4.696;2023-08-07T00:57:12;14.73;;;2.92;;
58208;SDS011;44006;52.028;4.696;2023-08-07T00:59:40;11.57;;;2.50;;
58208;SDS011;44006;52.028;4.696;2023-08-07T01:02:05;15.05;;;3.10;;
58208;SDS011;44006;52.028;4.696;2023-08-07T01:04:31;9.27;;;2.47;;
58208;SDS011;44006;52.028;4.696;2023-08-07T01:06:56;13.10;;;2.78;;
58208;SDS011;44006;52.028;4.696;2023-08-07T01:09:21;12.17;;;2.67;;
58208;SDS011;44006;52.028;4.696;2023-08-07T01:11:50;14.02;;;3.13;;
58208;SDS011;44006;52.028;4.696;2023-08-07T01:14:28;13.15;;;2.58;;
58208;SDS011;44006;52.028;4.696;2023-08-07T01:16:59;13.82;;;2.83;;
58208;SDS011;44006;52.028;4.696;2023-08-07T01:19:26;12.88;;;3.03;;
58208;SDS011;44006;52.028;4.696;2023-08-07T01:22:08;11.95;;;3.33;;
58208;SDS011;44006;52.028;4.696;2023-08-07T01:24:34;15.00;;;3.25;;
58208;SDS011;44006;52.028;4.696;2023-08-07T01:27:07;16.90;;;3.63;;
58208;SDS011;44006;52.028;4.696;2023-08-07T01:32:14;16.42;;;3.60;;
58208;SDS011;44006;52.028;4.696;2023-08-07T01:34:41;21.52;;;4.18;;
58208;SDS011;44006;52.028;4.696;2023-08-07T01:37:07;16.30;;;3.63;;
58208;SDS011;44006;52.028;4.696;2023-08-07T01:39:34;14.00;;;3.60;;
58208;SDS011;44006;52.028;4.696;2023-08-07T01:42:00;13.60;;;3.60;;
58208;SDS011;44006;52.028;4.696;2023-08-07T01:44:27;14.70;;;3.70;;
58208;SDS011;44006;52.028;4.696;2023-08-07T01:46:52;14.98;;;3.63;;
58208;SDS011;44006;52.028;4.696;2023-08-07T01:49:18;13.60;;;3.40;;
58208;SDS011;44006;52.028;4.696;2023-08-07T01:51:43;13.73;;;2.90;;
58208;SDS011;44006;52.028;4.696;2023-08-07T01:54:08;15.87;;;3.63;;
58208;SDS011;44006;52.028;4.696;2023-08-07T01:56:33;16.83;;;3.23;;
58208;SDS011;44006;52.028;4.696;2023-08-07T01:58:58;14.23;;;3.20;;
58208;SDS011;44006;52.028;4.696;2023-08-07T02:01:24;14.53;;;3.13;;
58208;SDS011;44006;52.028;4.696;2023-08-07T02:03:49;13.00;;;3.27;;
58208;SDS011;44006;52.028;4.696;2023-08-07T02:06:14;11.17;;;3.13;;
58208;SDS011;44006;52.028;4.696;2023-08-07T02:08:39;11.17;;;3.07;;
58208;SDS011;44006;52.028;4.696;2023-08-07T02:11:04;18.60;;;3.70;;
58208;SDS011;44006;52.028;4.696;2023-08-07T02:13:30;13.88;;;3.40;;
58208;SDS011;44006;52.028;4.696;2023-08-07T02:15:55;13.93;;;3.20;;
58208;SDS011;44006;52.028;4.696;2023-08-07T02:18:20;13.20;;;3.53;;
58208;SDS011;44006;52.028;4.696;2023-08-07T02:20:45;18.00;;;3.92;;
58208;SDS011;44006;52.028;4.696;2023-08-07T02:23:11;17.10;;;3.35;;
58208;SDS011;44006;52.028;4.696;2023-08-07T02:25:36;15.50;;;3.33;;
58208;SDS011;44006;52.028;4.696;2023-08-07T02:28:01;17.67;;;3.50;;
58208;SDS011;44006;52.028;4.696;2023-08-07T02:30:26;17.27;;;3.57;;
58208;SDS011;44006;52.028;4.696;2023-08-07T02:32:52;14.17;;;3.20;;
58208;SDS011;44006;52.028;4.696;2023-08-07T02:35:17;14.53;;;3.40;;
58208;SDS011;44006;52.028;4.696;2023-08-07T02:37:42;17.60;;;3.72;;
58208;SDS011;44006;52.028;4.696;2023-08-07T02:40:08;11.45;;;3.33;;
58208;SDS011;44006;52.028;4.696;2023-08-07T02:42:33;16.30;;;4.00;;
58208;SDS011;44006;52.028;4.696;2023-08-07T02:44:58;17.23;;;3.47;;
58208;SDS011;44006;52.028;4.696;2023-08-07T02:47:23;21.63;;;4.10;;
58208;SDS011;44006;52.028;4.696;2023-08-07T02:49:49;14.18;;;3.40;;
58208;SDS011;44006;52.028;4.696;2023-08-07T02:52:14;18.33;;;3.43;;
58208;SDS011;44006;52.028;4.696;2023-08-07T02:54:39;12.20;;;3.73;;
58208;SDS011;44006;52.028;4.696;2023-08-07T02:57:04;17.33;;;3.83;;
58208;SDS011;44006;52.028;4.696;2023-08-07T02:59:29;15.52;;;3.30;;
58208;SDS011;44006;52.028;4.696;2023-08-07T03:01:55;15.15;;;3.30;;
58208;SDS011;44006;52.028;4.696;2023-08-07T03:04:21;11.88;;;2.78;;
58208;SDS011;44006;52.028;4.696;2023-08-07T03:06:46;12.77;;;3.00;;
58208;SDS011;44006;52.028;4.696;2023-08-07T03:09:11;16.57;;;2.87;;
58208;SDS011;44006;52.028;4.696;2023-08-07T03:11:36;13.00;;;2.45;;
58208;SDS011;44006;52.028;4.696;2023-08-07T03:14:01;9.20;;;2.27;;
58208;SDS011;44006;52.028;4.696;2023-08-07T03:16:28;8.75;;;1.92;;
58208;SDS011;44006;52.028;4.696;2023-08-07T03:18:53;10.25;;;2.38;;
58208;SDS011;44006;52.028;4.696;2023-08-07T03:21:18;12.40;;;2.85;;
58208;SDS011;44006;52.028;4.696;2023-08-07T03:23:44;9.43;;;2.60;;
58208;SDS011;44006;52.028;4.696;2023-08-07T03:26:10;14.90;;;3.08;;
58208;SDS011;44006;52.028;4.696;2023-08-07T03:28:35;13.00;;;2.97;;
58208;SDS011;44006;52.028;4.696;2023-08-07T03:31:01;13.27;;;3.08;;
58208;SDS011;44006;52.028;4.696;2023-08-07T03:33:26;12.25;;;3.22;;
58208;SDS011;44006;52.028;4.696;2023-08-07T03:35:52;13.65;;;2.85;;
58208;SDS011;44006;52.028;4.696;2023-08-07T03:38:18;13.50;;;3.25;;
58208;SDS011;44006;52.028;4.696;2023-08-07T03:40:43;16.20;;;3.92;;
58208;SDS011;44006;52.028;4.696;2023-08-07T03:43:08;16.93;;;3.13;;
58208;SDS011;44006;52.028;4.696;2023-08-07T03:45:33;11.37;;;3.40;;
58208;SDS011;44006;52.028;4.696;2023-08-07T03:47:59;22.70;;;3.53;;
58208;SDS011;44006;52.028;4.696;2023-08-07T03:50:25;17.20;;;3.63;;
58208;SDS011;44006;52.028;4.696;2023-08-07T03:52:50;12.05;;;3.08;;
58208;SDS011;44006;52.028;4.696;2023-08-07T03:55:16;12.77;;;3.50;;
58208;SDS011;44006;52.028;4.696;2023-08-07T03:57:41;15.07;;;3.45;;
58208;SDS011;44006;52.028;4.696;2023-08-07T04:00:07;15.67;;;3.17;;
58208;SDS011;44006;52.028;4.696;2023-08-07T04:02:32;10.73;;;3.10;;
58208;SDS011;44006;52.028;4.696;2023-08-07T04:04:58;17.90;;;4.10;;
58208;SDS011;44006;52.028;4.696;2023-08-07T04:07:23;15.50;;;3.57;;
58208;SDS011;44006;52.028;4.696;2023-08-07T04:09:48;14.40;;;3.73;;
58208;SDS011;44006;52.028;4.696;2023-08-07T04:12:13;21.37;;;3.93;;
58208;SDS011;44006;52.028;4.696;2023-08-07T04:14:38;15.17;;;3.27;;
58208;SDS011;44006;52.028;4.696;2023-08-07T04:17:04;18.63;;;3.97;;
58208;SDS011;44006;52.028;4.696;2023-08-07T04:19:29;20.55;;;3.83;;
58208;SDS011;44006;52.028;4.696;2023-08-07T04:21:54;12.37;;;3.23;;
58208;SDS011;44006;52.028;4.696;2023-08-07T04:24:20;16.00;;;4.25;;
58208;SDS011;44006;52.028;4.696;2023-08-07T04:26:45;17.88;;;4.93;;
58208;SDS011;44006;52.028;4.696;2023-08-07T04:29:11;22.87;;;4.40;;
58208;SDS011;44006;52.028;4.696;2023-08-07T04:31:36;18.43;;;4.17;;
58208;SDS011;44006;52.028;4.696;2023-08-07T04:34:01;17.08;;;3.80;;
58208;SDS011;44006;52.028;4.696;2023-08-07T04:36:26;13.52;;;3.35;;
58208;SDS011;44006;52.028;4.696;2023-08-07T04:38:51;16.87;;;3.10;;
58208;SDS011;44006;52.028;4.696;2023-08-07T04:41:17;14.55;;;3.20;;
58208;SDS011;44006;52.028;4.696;2023-08-07T04:43:42;16.42;;;3.13;;
58208;SDS011;44006;52.028;4.696;2023-08-07T04:46:08;18.42;;;3.63;;
58208;SDS011;44006;52.028;4.696;2023-08-07T04:48:34;14.43;;;3.08;;
58208;SDS011;44006;52.028;4.696;2023-08-07T04:50:59;13.57;;;3.17;;
58208;SDS011;44006;52.028;4.696;2023-08-07T04:53:24;13.18;;;3.00;;
58208;SDS011;44006;52.028;4.696;2023-08-07T04:55:50;13.87;;;2.83;;
58208;SDS011;44006;52.028;4.696;2023-08-07T04:58:15;15.30;;;2.90;;
58208;SDS011;44006;52.028;4.696;2023-08-07T05:00:40;15.75;;;3.20;;
58208;SDS011;44006;52.028;4.696;2023-08-07T05:03:05;11.20;;;3.30;;
58208;SDS011;44006;52.028;4.696;2023-08-07T05:05:30;17.45;;;3.70;;
58208;SDS011;44006;52.028;4.696;2023-08-07T05:07:57;13.70;;;2.83;;
58208;SDS011;44006;52.028;4.696;2023-08-07T05:10:22;12.57;;;2.92;;
58208;SDS011;44006;52.028;4.696;2023-08-07T05:12:48;20.70;;;3.10;;
58208;SDS011;44006;52.028;4.696;2023-08-07T05:15:13;15.75;;;3.05;;
58208;SDS011;44006;52.028;4.696;2023-08-07T05:17:38;17.15;;;3.53;;
58208;SDS011;44006;52.028;4.696;2023-08-07T05:20:04;9.48;;;2.78;;
58208;SDS011;44006;52.028;4.696;2023-08-07T05:22:30;11.68;;;2.85;;
58208;SDS011;44006;52.028;4.696;2023-08-07T05:24:55;7.97;;;3.20;;
58208;SDS011;44006;52.028;4.696;2023-08-07T05:27:21;8.97;;;2.53;;
58208;SDS011;44006;52.028;4.696;2023-08-07T05:29:46;11.73;;;3.63;;
58208;SDS011;44006;52.028;4.696;2023-08-07T05:32:11;17.07;;;3.40;;
58208;SDS011;44006;52.028;4.696;2023-08-07T05:34:37;14.38;;;3.50;;
58208;SDS011;44006;52.028;4.696;2023-08-07T05:37:02;13.60;;;2.95;;
58208;SDS011;44006;52.028;4.696;2023-08-07T05:39:28;16.10;;;3.75;;
58208;SDS011;44006;52.028;4.696;2023-08-07T05:41:53;18.40;;;3.22;;
58208;SDS011;44006;52.028;4.696;2023-08-07T05:44:19;19.13;;;3.78;;
58208;SDS011;44006;52.028;4.696;2023-08-07T05:46:44;12.57;;;3.67;;
58208;SDS011;44006;52.028;4.696;2023-08-07T05:49:10;13.90;;;3.20;;
58208;SDS011;44006;52.028;4.696;2023-08-07T05:51:35;18.57;;;3.60;;
58208;SDS011;44006;52.028;4.696;2023-08-07T05:54:00;17.20;;;3.57;;
58208;SDS011;44006;52.028;4.696;2023-08-07T05:56:25;17.27;;;3.95;;
58208;SDS011;44006;52.028;4.696;2023-08-07T05:58:51;11.82;;;3.20;;
58208;SDS011;44006;52.028;4.696;2023-08-07T06:01:16;15.70;;;3.88;;
58208;SDS011;44006;52.028;4.696;2023-08-07T06:03:42;12.77;;;3.15;;
58208;SDS011;44006;52.028;4.696;2023-08-07T06:06:07;15.73;;;3.63;;
58208;SDS011;44006;52.028;4.696;2023-08-07T06:08:33;11.60;;;3.35;;
58208;SDS011;44006;52.028;4.696;2023-08-07T06:10:59;11.60;;;3.28;;
58208;SDS011;44006;52.028;4.696;2023-08-07T06:13:28;12.32;;;3.10;;
58208;SDS011;44006;52.028;4.696;2023-08-07T06:15:53;11.67;;;3.23;;
58208;SDS011;44006;52.028;4.696;2023-08-07T06:18:19;10.63;;;3.20;;
58208;SDS011;44006;52.028;4.696;2023-08-07T06:20:44;11.30;;;3.33;;
58208;SDS011;44006;52.028;4.696;2023-08-07T06:23:09;10.75;;;3.30;;
58208;SDS011;44006;52.028;4.696;2023-08-07T06:25:35;11.93;;;3.40;;
58208;SDS011;44006;52.028;4.696;2023-08-07T06:28:00;13.57;;;3.97;;
58208;SDS011;44006;52.028;4.696;2023-08-07T06:30:26;12.60;;;4.20;;
58208;SDS011;44006;52.028;4.696;2023-08-07T06:32:51;11.85;;;3.70;;
58208;SDS011;44006;52.028;4.696;2023-08-07T06:35:16;9.80;;;3.40;;
58208;SDS011;44006;52.028;4.696;2023-08-07T06:37:41;9.47;;;3.40;;
58208;SDS011;44006;52.028;4.696;2023-08-07T06:40:07;15.40;;;3.93;;
58208;SDS011;44006;52.028;4.696;2023-08-07T06:42:32;17.10;;;4.15;;
58208;SDS011;44006;52.028;4.696;2023-08-07T06:44:57;17.00;;;3.92;;
58208;SDS011;44006;52.028;4.696;2023-08-07T06:47:23;16.30;;;3.87;;
58208;SDS011;44006;52.028;4.696;2023-08-07T06:49:48;13.97;;;3.80;;
58208;SDS011;44006;52.028;4.696;2023-08-07T06:52:13;13.13;;;4.20;;
58208;SDS011;44006;52.028;4.696;2023-08-07T06:54:38;14.27;;;4.57;;
58208;SDS011;44006;52.028;4.696;2023-08-07T06:57:04;14.70;;;4.03;;
58208;SDS011;44006;52.028;4.696;2023-08-07T06:59:29;15.73;;;4.85;;
58208;SDS011;44006;52.028;4.696;2023-08-07T07:01:54;20.33;;;4.30;;
58208;SDS011;44006;52.028;4.696;2023-08-07T07:04:19;14.48;;;4.25;;
58208;SDS011;44006;52.028;4.696;2023-08-07T07:06:45;14.52;;;3.70;;
58208;SDS011;44006;52.028;4.696;2023-08-07T07:09:10;15.00;;;3.88;;
58208;SDS011;44006;52.028;4.696;2023-08-07T07:11:36;18.50;;;3.65;;
58208;SDS011;44006;52.028;4.696;2023-08-07T07:14:02;11.80;;;3.50;;
58208;SDS011;44006;52.028;4.696;2023-08-07T07:16:27;13.17;;;3.70;;
58208;SDS011;44006;52.028;4.696;2023-08-07T07:18:53;16.87;;;4.20;;
58208;SDS011;44006;52.028;4.696;2023-08-07T07:21:21;15.70;;;3.72;;
58208;SDS011;44006;52.028;4.696;2023-08-07T07:23:46;11.95;;;3.35;;
58208;SDS011;44006;52.028;4.696;2023-08-07T07:26:11;17.77;;;4.00;;
58208;SDS011;44006;52.028;4.696;2023-08-07T07:28:36;12.70;;;3.47;;
58208;SDS011;44006;52.028;4.696;2023-08-07T07:31:01;10.93;;;3.37;;
58208;SDS011;44006;52.028;4.696;2023-08-07T07:33:28;14.70;;;3.63;;
58208;SDS011;44006;52.028;4.696;2023-08-07T07:35:53;14.45;;;3.13;;
58208;SDS011;44006;52.028;4.696;2023-08-07T07:38:19;15.43;;;3.40;;
58208;SDS011;44006;52.028;4.696;2023-08-07T07:40:44;12.68;;;3.00;;
58208;SDS011;44006;52.028;4.696;2023-08-07T07:43:10;9.30;;;2.75;;
58208;SDS011;44006;52.028;4.696;2023-08-07T07:45:36;9.40;;;3.03;;
58208;SDS011;44006;52.028;4.696;2023-08-07T07:48:02;15.63;;;3.05;;
58208;SDS011;44006;52.028;4.696;2023-08-07T07:50:28;10.75;;;3.55;;
58208;SDS011;44006;52.028;4.696;2023-08-07T07:52:53;9.60;;;2.75;;
58208;SDS011;44006;52.028;4.696;2023-08-07T07:55:18;12.15;;;3.13;;
58208;SDS011;44006;52.028;4.696;2023-08-07T07:57:44;11.32;;;2.67;;
58208;SDS011;44006;52.028;4.696;2023-08-07T08:00:09;11.77;;;2.47;;
58208;SDS011;44006;52.028;4.696;2023-08-07T08:02:38;10.85;;;3.10;;
58208;SDS011;44006;52.028;4.696;2023-08-07T08:05:03;10.85;;;2.45;;
58208;SDS011;44006;52.028;4.696;2023-08-07T08:07:28;13.10;;;2.53;;
58208;SDS011;44006;52.028;4.696;2023-08-07T08:09:54;9.95;;;2.30;;
58208;SDS011;44006;52.028;4.696;2023-08-07T08:12:21;11.63;;;2.53;;
58208;SDS011;44006;52.028;4.696;2023-08-07T08:14:46;11.50;;;2.90;;
58208;SDS011;44006;52.028;4.696;2023-08-07T08:17:11;12.17;;;3.23;;
58208;SDS011;44006;52.028;4.696;2023-08-07T08:19:36;8.20;;;2.40;;
58208;SDS011;44006;52.028;4.696;2023-08-07T08:22:02;9.60;;;2.43;;
58208;SDS011;44006;52.028;4.696;2023-08-07T08:24:27;9.57;;;2.30;;
58208;SDS011;44006;52.028;4.696;2023-08-07T08:26:52;6.53;;;2.40;;
58208;SDS011;44006;52.028;4.696;2023-08-07T08:29:17;11.40;;;2.50;;
58208;SDS011;44006;52.028;4.696;2023-08-07T08:31:42;10.93;;;2.53;;
58208;SDS011;44006;52.028;4.696;2023-08-07T08:34:08;8.70;;;2.63;;
58208;SDS011;44006;52.028;4.696;2023-08-07T08:36:33;8.90;;;2.60;;
58208;SDS011;44006;52.028;4.696;2023-08-07T08:38:58;9.88;;;2.50;;
58208;SDS011;44006;52.028;4.696;2023-08-07T08:41:23;6.30;;;2.07;;
58208;SDS011;44006;52.028;4.696;2023-08-07T08:43:49;9.50;;;2.35;;
58208;SDS011;44006;52.028;4.696;2023-08-07T08:46:16;11.15;;;2.40;;
58208;SDS011;44006;52.028;4.696;2023-08-07T08:48:43;10.93;;;2.22;;
58208;SDS011;44006;52.028;4.696;2023-08-07T08:51:11;8.23;;;2.42;;
58208;SDS011;44006;52.028;4.696;2023-08-07T08:53:38;9.13;;;2.40;;
58208;SDS011;44006;52.028;4.696;2023-08-07T08:56:03;6.70;;;2.08;;
58208;SDS011;44006;52.028;4.696;2023-08-07T08:58:29;11.02;;;2.67;;
58208;SDS011;44006;52.028;4.696;2023-08-07T09:00:54;9.73;;;2.20;;
58208;SDS011;44006;52.028;4.696;2023-08-07T09:03:19;11.90;;;2.20;;
58208;SDS011;44006;52.028;4.696;2023-08-07T09:05:45;8.15;;;2.17;;
58208;SDS011;44006;52.028;4.696;2023-08-07T09:08:10;7.97;;;2.28;;
58208;SDS011;44006;52.028;4.696;2023-08-07T09:10:36;7.93;;;1.90;;
58208;SDS011;44006;52.028;4.696;2023-08-07T09:13:02;9.15;;;2.22;;
58208;SDS011;44006;52.028;4.696;2023-08-07T09:15:30;11.23;;;2.22;;
58208;SDS011;44006;52.028;4.696;2023-08-07T09:17:56;8.13;;;2.60;;
58208;SDS011;44006;52.028;4.696;2023-08-07T09:20:21;7.68;;;2.00;;
58208;SDS011;44006;52.028;4.696;2023-08-07T09:22:48;6.68;;;1.92;;
58208;SDS011;44006;52.028;4.696;2023-08-07T09:25:13;10.55;;;1.90;;
58208;SDS011;44006;52.028;4.696;2023-08-07T09:27:39;7.07;;;2.33;;
58208;SDS011;44006;52.028;4.696;2023-08-07T09:30:05;10.07;;;2.23;;
58208;SDS011;44006;52.028;4.696;2023-08-07T09:32:31;10.40;;;2.05;;
58208;SDS011;44006;52.028;4.696;2023-08-07T09:34:56;10.55;;;2.10;;
58208;SDS011;44006;52.028;4.696;2023-08-07T09:37:23;9.60;;;1.90;;
58208;SDS011;44006;52.028;4.696;2023-08-07T09:39:48;9.98;;;2.08;;
58208;SDS011;44006;52.028;4.696;2023-08-07T09:42:13;11.37;;;1.90;;
58208;SDS011;44006;52.028;4.696;2023-08-07T09:44:40;10.55;;;1.95;;
58208;SDS011;44006;52.028;4.696;2023-08-07T09:47:15;9.18;;;2.60;;
58208;SDS011;44006;52.028;4.696;2023-08-07T09:49:40;6.32;;;1.90;;
58208;SDS011;44006;52.028;4.696;2023-08-07T09:52:06;11.93;;;2.10;;
58208;SDS011;44006;52.028;4.696;2023-08-07T09:54:32;4.55;;;1.70;;
58208;SDS011;44006;52.028;4.696;2023-08-07T09:56:58;7.28;;;2.05;;
58208;SDS011;44006;52.028;4.696;2023-08-07T09:59:23;6.55;;;2.35;;
58208;SDS011;44006;52.028;4.696;2023-08-07T10:01:48;6.73;;;2.20;;
58208;SDS011;44006;52.028;4.696;2023-08-07T10:04:14;9.40;;;2.40;;
58208;SDS011;44006;52.028;4.696;2023-08-07T10:06:41;10.40;;;2.00;;
58208;SDS011;44006;52.028;4.696;2023-08-07T10:09:07;4.50;;;1.90;;
58208;SDS011;44006;52.028;4.696;2023-08-07T10:11:34;8.82;;;1.92;;
58208;SDS011;44006;52.028;4.696;2023-08-07T10:13:59;7.18;;;1.90;;
58208;SDS011;44006;52.028;4.696;2023-08-07T10:16:25;6.43;;;1.98;;
58208;SDS011;44006;52.028;4.696;2023-08-07T10:18:51;7.25;;;1.85;;
58208;SDS011;44006;52.028;4.696;2023-08-07T10:21:16;8.23;;;2.30;;
58208;SDS011;44006;52.028;4.696;2023-08-07T10:23:41;7.67;;;1.83;;
58208;SDS011;44006;52.028;4.696;2023-08-07T10:26:07;6.13;;;2.10;;
58208;SDS011;44006;52.028;4.696;2023-08-07T10:28:34;6.60;;;1.88;;
58208;SDS011;44006;52.028;4.696;2023-08-07T10:31:02;7.28;;;1.92;;
58208;SDS011;44006;52.028;4.696;2023-08-07T10:33:28;6.60;;;1.98;;
58208;SDS011;44006;52.028;4.696;2023-08-07T10:35:54;8.10;;;1.80;;
58208;SDS011;44006;52.028;4.696;2023-08-07T10:38:19;4.83;;;1.77;;
58208;SDS011;44006;52.028;4.696;2023-08-07T10:41:05;7.03;;;1.85;;
58208;SDS011;44006;52.028;4.696;2023-08-07T10:43:36;5.72;;;1.80;;
58208;SDS011;44006;52.028;4.696;2023-08-07T10:46:05;6.65;;;1.67;;
58208;SDS011;44006;52.028;4.696;2023-08-07T10:48:31;8.93;;;1.73;;
58208;SDS011;44006;52.028;4.696;2023-08-07T10:51:05;5.63;;;1.60;;
58208;SDS011;44006;52.028;4.696;2023-08-07T10:53:41;6.72;;;2.08;;
58208;SDS011;44006;52.028;4.696;2023-08-07T10:56:09;6.15;;;1.90;;
58208;SDS011;44006;52.028;4.696;2023-08-07T10:58:38;7.13;;;1.80;;
58208;SDS011;44006;52.028;4.696;2023-08-07T11:03:48;7.75;;;1.95;;
58208;SDS011;44006;52.028;4.696;2023-08-07T11:06:13;5.65;;;1.80;;
58208;SDS011;44006;52.028;4.696;2023-08-07T11:08:38;7.43;;;1.70;;
58208;SDS011;44006;52.028;4.696;2023-08-07T11:11:04;6.40;;;1.83;;
58208;SDS011;44006;52.028;4.696;2023-08-07T11:13:30;3.88;;;1.70;;
58208;SDS011;44006;52.028;4.696;2023-08-07T11:15:55;6.57;;;1.83;;
58208;SDS011;44006;52.028;4.696;2023-08-07T11:18:21;7.30;;;1.70;;
58208;SDS011;44006;52.028;4.696;2023-08-07T11:20:47;5.60;;;1.63;;
58208;SDS011;44006;52.028;4.696;2023-08-07T11:23:13;6.90;;;2.00;;
58208;SDS011;44006;52.028;4.696;2023-08-07T11:25:38;7.20;;;1.63;;
58208;SDS011;44006;52.028;4.696;2023-08-07T11:28:03;5.60;;;1.80;;
58208;SDS011;44006;52.028;4.696;2023-08-07T11:30:28;4.35;;;1.60;;
58208;SDS011;44006;52.028;4.696;2023-08-07T11:32:53;6.47;;;1.83;;
58208;SDS011;44006;52.028;4.696;2023-08-07T11:35:19;6.27;;;1.57;;
58208;SDS011;44006;52.028;4.696;2023-08-07T11:37:45;9.40;;;2.33;;
58208;SDS011;44006;52.028;4.696;2023-08-07T11:40:10;8.60;;;1.90;;
58208;SDS011;44006;52.028;4.696;2023-08-07T11:42:36;9.38;;;2.20;;
58208;SDS011;44006;52.028;4.696;2023-08-07T11:45:02;4.50;;;1.73;;
58208;SDS011;44006;52.028;4.696;2023-08-07T11:47:27;7.75;;;1.80;;
58208;SDS011;44006;52.028;4.696;2023-08-07T11:49:52;5.13;;;1.40;;
58208;SDS011;44006;52.028;4.696;2023-08-07T11:52:18;5.15;;;1.85;;
58208;SDS011;44006;52.028;4.696;2023-08-07T11:54:46;3.88;;;1.27;;
58208;SDS011;44006;52.028;4.696;2023-08-07T11:57:17;4.55;;;1.45;;
58208;SDS011;44006;52.028;4.696;2023-08-07T11:59:47;5.15;;;1.42;;
58208;SDS011;44006;52.028;4.696;2023-08-07T12:02:12;6.18;;;1.45;;
58208;SDS011;44006;52.028;4.696;2023-08-07T12:04:37;5.32;;;1.70;;
58208;SDS011;44006;52.028;4.696;2023-08-07T12:07:03;6.93;;;2.80;;
58208;SDS011;44006;52.028;4.696;2023-08-07T12:09:29;6.82;;;1.85;;
58208;SDS011;44006;52.028;4.696;2023-08-07T12:11:55;6.30;;;1.60;;
58208;SDS011;44006;52.028;4.696;2023-08-07T12:14:21;3.55;;;1.63;;
58208;SDS011;44006;52.028;4.696;2023-08-07T12:16:46;7.43;;;2.10;;
58208;SDS011;44006;52.028;4.696;2023-08-07T12:19:12;4.78;;;1.55;;
58208;SDS011;44006;52.028;4.696;2023-08-07T12:21:39;7.03;;;1.52;;
58208;SDS011;44006;52.028;4.696;2023-08-07T12:24:04;5.33;;;1.80;;
58208;SDS011;44006;52.028;4.696;2023-08-07T12:26:31;8.32;;;2.20;;
58208;SDS011;44006;52.028;4.696;2023-08-07T12:28:57;6.40;;;2.07;;
58208;SDS011;44006;52.028;4.696;2023-08-07T12:31:22;6.33;;;2.00;;
58208;SDS011;44006;52.028;4.696;2023-08-07T12:33:47;7.33;;;2.00;;
58208;SDS011;44006;52.028;4.696;2023-08-07T12:36:12;4.27;;;1.90;;
58208;SDS011;44006;52.028;4.696;2023-08-07T12:38:39;4.88;;;2.00;;
58208;SDS011;44006;52.028;4.696;2023-08-07T12:41:04;6.47;;;1.90;;
58208;SDS011;44006;52.028;4.696;2023-08-07T12:43:30;7.88;;;1.98;;
58208;SDS011;44006;52.028;4.696;2023-08-07T12:45:55;6.13;;;1.97;;
58208;SDS011;44006;52.028;4.696;2023-08-07T12:48:20;5.35;;;1.65;;
58208;SDS011;44006;52.028;4.696;2023-08-07T12:50:45;7.65;;;2.25;;
58208;SDS011;44006;52.028;4.696;2023-08-07T12:53:10;6.43;;;1.80;;
58208;SDS011;44006;52.028;4.696;2023-08-07T12:55:37;3.13;;;1.60;;
58208;SDS011;44006;52.028;4.696;2023-08-07T12:58:02;6.20;;;2.50;;
58208;SDS011;44006;52.028;4.696;2023-08-07T13:00:27;4.60;;;1.42;;
58208;SDS011;44006;52.028;4.696;2023-08-07T13:02:53;4.37;;;1.80;;
58208;SDS011;44006;52.028;4.696;2023-08-07T13:05:20;5.72;;;2.15;;
58208;SDS011;44006;52.028;4.696;2023-08-07T13:07:45;5.10;;;1.95;;
58208;SDS011;44006;52.028;4.696;2023-08-07T13:10:11;5.05;;;2.00;;
58208;SDS011;44006;52.028;4.696;2023-08-07T13:12:40;6.50;;;2.00;;
58208;SDS011;44006;52.028;4.696;2023-08-07T13:15:07;6.78;;;1.90;;
58208;SDS011;44006;52.028;4.696;2023-08-07T13:17:33;6.25;;;2.20;;
58208;SDS011;44006;52.028;4.696;2023-08-07T13:19:59;6.03;;;2.05;;
58208;SDS011;44006;52.028;4.696;2023-08-07T13:22:24;5.80;;;1.85;;
58208;SDS011;44006;52.028;4.696;2023-08-07T13:24:49;4.88;;;1.98;;
58208;SDS011;44006;52.028;4.696;2023-08-07T13:27:15;4.72;;;1.90;;
58208;SDS011;44006;52.028;4.696;2023-08-07T13:29:40;5.65;;;1.88;;
58208;SDS011;44006;52.028;4.696;2023-08-07T13:32:05;6.77;;;2.40;;
58208;SDS011;44006;52.028;4.696;2023-08-07T13:34:35;5.30;;;1.92;;
58208;SDS011;44006;52.028;4.696;2023-08-07T13:37:00;4.95;;;1.95;;
58208;SDS011;44006;52.028;4.696;2023-08-07T13:39:25;5.43;;;2.50;;
58208;SDS011;44006;52.028;4.696;2023-08-07T13:41:51;8.77;;;2.60;;
58208;SDS011;44006;52.028;4.696;2023-08-07T13:44:16;5.53;;;2.33;;
58208;SDS011;44006;52.028;4.696;2023-08-07T13:46:41;6.22;;;2.33;;
58208;SDS011;44006;52.028;4.696;2023-08-07T13:49:06;9.48;;;2.88;;
58208;SDS011;44006;52.028;4.696;2023-08-07T13:51:32;8.15;;;2.75;;
58208;SDS011;44006;52.028;4.696;2023-08-07T13:53:57;5.07;;;2.58;;
58208;SDS011;44006;52.028;4.696;2023-08-07T13:56:22;6.70;;;2.50;;
58208;SDS011;44006;52.028;4.696;2023-08-07T13:58:47;7.55;;;2.17;;
58208;SDS011;44006;52.028;4.696;2023-08-07T14:01:13;9.67;;;2.60;;
58208;SDS011;44006;52.028;4.696;2023-08-07T14:03:38;6.50;;;3.05;;
58208;SDS011;44006;52.028;4.696;2023-08-07T14:06:03;10.33;;;2.87;;
58208;SDS011;44006;52.028;4.696;2023-08-07T14:08:28;5.17;;;2.37;;
58208;SDS011;44006;52.028;4.696;2023-08-07T14:10:53;6.35;;;2.90;;
58208;SDS011;44006;52.028;4.696;2023-08-07T14:13:19;8.23;;;2.83;;
58208;SDS011;44006;52.028;4.696;2023-08-07T14:15:44;5.18;;;2.65;;
58208;SDS011;44006;52.028;4.696;2023-08-07T14:18:09;5.47;;;2.60;;
58208;SDS011;44006;52.028;4.696;2023-08-07T14:20:36;7.53;;;3.00;;
58208;SDS011;44006;52.028;4.696;2023-08-07T14:23:01;7.10;;;2.78;;
58208;SDS011;44006;52.028;4.696;2023-08-07T14:25:27;6.50;;;2.50;;
58208;SDS011;44006;52.028;4.696;2023-08-07T14:27:52;7.05;;;2.67;;
58208;SDS011;44006;52.028;4.696;2023-08-07T14:30:18;6.80;;;2.85;;
58208;SDS011;44006;52.028;4.696;2023-08-07T14:32:44;6.60;;;3.05;;
58208;SDS011;44006;52.028;4.696;2023-08-07T14:35:11;7.82;;;2.72;;
58208;SDS011;44006;52.028;4.696;2023-08-07T14:37:36;6.68;;;2.78;;